createdAt,value
2019-06-15T00:00:48.083Z,57.49
2019-06-15T00:03:19.891Z,57.48
2019-06-15T00:05:51.895Z,57.44
2019-06-15T00:08:24.148Z,57.47
2019-06-15T00:10:55.978Z,57.52
2019-06-15T00:13:27.682Z,57.60
2019-06-15T00:16:00.202Z,57.68
2019-06-15T00:18:31.930Z,57.81
2019-06-15T00:21:03.812Z,57.84
2019-06-15T00:23:35.673Z,57.90
2019-06-15T00:26:07.396Z,57.94
2019-06-15T00:28:40.592Z,57.95
2019-06-15T00:31:12.960Z,57.97
2019-06-15T00:33:44.609Z,58.08
2019-06-15T00:36:16.231Z,58.24
2019-06-15T00:38:47.880Z,58.38
2019-06-15T00:41:20.837Z,58.42
2019-06-15T00:43:52.754Z,58.46
2019-06-15T00:46:25.265Z,58.47
2019-06-15T00:48:57.172Z,58.51
2019-06-15T00:51:28.871Z,58.56
2019-06-15T00:54:00.639Z,58.68
2019-06-15T00:56:32.288Z,58.74
2019-06-15T00:59:04.130Z,58.80
2019-06-15T01:01:36.671Z,58.83
2019-06-15T01:04:08.313Z,58.85
2019-06-15T01:06:40.420Z,58.87
2019-06-15T01:09:12.108Z,58.90
2019-06-15T01:11:43.818Z,58.96
2019-06-15T01:14:15.472Z,59.00
2019-06-15T01:16:47.872Z,59.00
2019-06-15T01:19:19.494Z,59.06
2019-06-15T01:21:51.653Z,59.11
2019-06-15T01:24:23.420Z,59.13
2019-06-15T01:26:55.114Z,59.14
2019-06-15T01:29:27.102Z,59.19
2019-06-15T01:31:59.387Z,59.23
2019-06-15T01:34:31.122Z,59.28
2019-06-15T01:37:03.233Z,59.36
2019-06-15T01:39:34.978Z,59.45
2019-06-15T01:42:06.619Z,59.54
2019-06-15T01:44:38.512Z,59.69
2019-06-15T01:47:10.908Z,59.79
2019-06-15T01:49:42.910Z,59.81
2019-06-15T01:52:14.572Z,59.89
2019-06-15T01:54:46.217Z,59.84
2019-06-15T01:57:17.949Z,59.88
2019-06-15T01:59:49.676Z,59.91
2019-06-15T02:02:22.188Z,59.94
2019-06-15T02:04:53.908Z,60.00
2019-06-15T02:07:25.574Z,59.98
2019-06-15T02:09:57.222Z,59.97
2019-06-15T02:12:28.885Z,59.94
2019-06-15T02:15:00.656Z,59.91
2019-06-15T02:17:32.846Z,59.96
2019-06-15T02:20:06.309Z,60.02
2019-06-15T02:22:37.923Z,60.07
2019-06-15T02:25:09.972Z,60.11
2019-06-15T02:27:41.685Z,60.14
2019-06-15T02:30:14.351Z,60.23
2019-06-15T02:32:46.087Z,60.27
2019-06-15T02:35:18.110Z,60.35
2019-06-15T02:37:49.885Z,60.44
2019-06-15T02:40:21.828Z,60.56
2019-06-15T02:42:53.494Z,60.62
2019-06-15T02:45:26.479Z,60.64
2019-06-15T02:47:58.276Z,60.63
2019-06-15T02:50:30.630Z,60.62
2019-06-15T02:53:02.299Z,60.56
2019-06-15T02:55:33.961Z,60.55
2019-06-15T02:58:05.786Z,60.62
2019-06-15T03:00:50.659Z,60.71
2019-06-15T03:03:22.311Z,60.86
2019-06-15T03:05:55.184Z,60.94
2019-06-15T03:08:27.313Z,60.99
2019-06-15T03:10:58.962Z,61.21
2019-06-15T03:13:30.705Z,61.37
2019-06-15T03:16:02.412Z,61.58
2019-06-15T03:18:34.429Z,61.76
2019-06-15T03:21:06.568Z,62.00
2019-06-15T03:23:38.297Z,62.21
2019-06-15T03:26:09.991Z,62.41
2019-06-15T03:28:41.592Z,62.56
2019-06-15T03:31:13.341Z,62.72
2019-06-15T03:33:45.056Z,62.77
2019-06-15T03:36:17.088Z,62.82
2019-06-15T03:38:48.927Z,62.81
2019-06-15T03:41:20.673Z,62.80
2019-06-15T03:43:52.495Z,62.76
2019-06-15T03:46:24.151Z,62.68
2019-06-15T03:48:55.832Z,62.63
2019-06-15T03:51:29.747Z,62.56
2019-06-15T03:54:01.440Z,62.48
2019-06-15T03:56:33.207Z,62.41
2019-06-15T03:59:04.881Z,62.31
2019-06-15T04:01:45.310Z,62.26
2019-06-15T04:04:17.043Z,62.21
2019-06-15T04:06:49.144Z,62.19
2019-06-15T04:09:20.783Z,62.22
2019-06-15T04:11:52.540Z,62.24
2019-06-15T04:14:26.068Z,62.28
2019-06-15T04:16:59.307Z,62.35
2019-06-15T04:19:32.488Z,62.33
2019-06-15T04:22:06.180Z,62.33
2019-06-15T04:24:38.503Z,62.32
2019-06-15T04:27:11.847Z,62.32
2019-06-15T04:29:45.112Z,62.33
2019-06-15T04:32:17.079Z,62.31
2019-06-15T04:34:48.710Z,62.30
2019-06-15T04:37:20.373Z,62.28
2019-06-15T04:39:52.350Z,62.22
2019-06-15T04:42:24.057Z,62.16
2019-06-15T04:44:55.837Z,62.10
2019-06-15T04:47:27.684Z,62.06
2019-06-15T04:49:59.365Z,62.04
2019-06-15T04:52:31.365Z,62.03
2019-06-15T04:55:04.082Z,62.06
2019-06-15T04:57:35.727Z,62.09
2019-06-15T05:00:09.394Z,62.05
2019-06-15T05:02:41.097Z,61.97
2019-06-15T05:05:13.251Z,61.87
2019-06-15T05:07:45.074Z,61.85
2019-06-15T05:10:17.420Z,61.85
2019-06-15T05:12:49.312Z,61.84
2019-06-15T05:15:21.136Z,61.82
2019-06-15T05:17:52.862Z,61.83
2019-06-15T05:20:24.879Z,61.84
2019-06-15T05:22:56.515Z,61.92
2019-06-15T05:25:28.885Z,61.95
2019-06-15T05:28:00.540Z,61.89
2019-06-15T05:30:32.768Z,61.89
2019-06-15T05:33:04.566Z,61.90
2019-06-15T05:35:36.219Z,61.88
2019-06-15T05:38:07.929Z,61.88
2019-06-15T05:40:40.232Z,61.86
2019-06-15T05:43:12.215Z,61.88
2019-06-15T05:45:44.133Z,61.87
2019-06-15T05:48:15.825Z,61.85
2019-06-15T05:50:47.557Z,61.83
2019-06-15T05:53:19.239Z,61.81
2019-06-15T05:55:51.717Z,61.81
2019-06-15T05:58:23.930Z,61.79
2019-06-15T06:00:55.828Z,61.78
2019-06-15T06:03:28.469Z,61.80
2019-06-15T06:06:01.164Z,61.80
2019-06-15T06:08:32.780Z,61.76
2019-06-15T06:11:05.321Z,61.73
2019-06-15T06:13:35.953Z,61.71
2019-06-15T06:16:06.635Z,61.68
2019-06-15T06:18:38.354Z,61.72
2019-06-15T06:21:10.252Z,61.80
2019-06-15T06:23:42.034Z,61.81
2019-06-15T06:26:13.888Z,61.54
2019-06-15T06:28:56.929Z,61.04
2019-06-15T06:31:19.134Z,60.77
2019-06-15T06:33:51.227Z,60.67
2019-06-15T06:36:23.351Z,60.49
2019-06-15T06:38:55.060Z,60.31
2019-06-15T06:41:26.882Z,60.07
2019-06-15T06:43:58.791Z,59.80
2019-06-15T06:46:30.548Z,59.72
2019-06-15T06:49:02.269Z,59.55
2019-06-15T06:51:34.390Z,59.62
2019-06-15T06:54:06.514Z,59.63
2019-06-15T06:56:38.194Z,59.54
2019-06-15T06:59:10.075Z,59.75
2019-06-15T07:01:41.996Z,59.63
2019-06-15T07:04:13.820Z,59.47
2019-06-15T07:06:45.557Z,59.33
2019-06-15T07:09:17.353Z,59.12
2019-06-15T07:11:49.206Z,59.00
2019-06-15T07:14:24.078Z,58.75
2019-06-15T07:16:55.754Z,58.64
2019-06-15T07:19:27.839Z,58.47
2019-06-15T07:21:59.757Z,58.50
2019-06-15T07:24:31.940Z,58.55
2019-06-15T07:27:03.641Z,58.74
2019-06-15T07:29:35.597Z,58.83
2019-06-15T07:32:07.268Z,58.78
2019-06-15T07:34:38.990Z,58.53
2019-06-15T07:37:10.665Z,58.08
2019-06-15T07:39:42.400Z,57.87
2019-06-15T07:42:14.248Z,57.72
2019-06-15T07:44:46.240Z,57.85
2019-06-15T07:47:17.939Z,57.90
2019-06-15T07:49:49.754Z,57.84
2019-06-15T07:52:21.638Z,57.64
2019-06-15T07:54:53.416Z,57.30
2019-06-15T07:57:25.217Z,56.96
2019-06-15T07:59:57.058Z,56.87
2019-06-15T08:02:28.702Z,56.76
2019-06-15T08:05:01.343Z,56.65
2019-06-15T08:07:33.100Z,56.42
2019-06-15T08:10:05.814Z,56.14
2019-06-15T08:12:37.476Z,55.98
2019-06-15T08:15:10.340Z,55.78
2019-06-15T08:17:45.424Z,55.68
2019-06-15T08:20:18.240Z,55.76
2019-06-15T08:22:49.892Z,55.90
2019-06-15T08:25:21.954Z,55.92
2019-06-15T08:27:53.869Z,55.98
2019-06-15T08:30:39.887Z,56.00
2019-06-15T08:33:11.712Z,55.78
2019-06-15T08:35:43.718Z,55.63
2019-06-15T08:38:15.411Z,55.58
2019-06-15T08:40:47.267Z,55.41
2019-06-15T08:43:18.941Z,55.23
2019-06-15T08:45:50.757Z,55.21
2019-06-15T08:48:22.665Z,55.18
2019-06-15T08:50:54.556Z,55.12
2019-06-15T08:53:26.229Z,55.09
2019-06-15T08:55:58.039Z,54.93
2019-06-15T08:58:29.779Z,54.47
2019-06-15T09:01:01.726Z,54.23
2019-06-15T09:03:33.818Z,53.72
2019-06-15T09:06:05.562Z,53.59
2019-06-15T09:08:37.376Z,53.45
2019-06-15T09:11:09.119Z,53.36
2019-06-15T09:13:40.817Z,53.10
2019-06-15T09:16:12.592Z,52.91
2019-06-15T09:18:45.039Z,52.53
2019-06-15T09:21:16.778Z,52.35
2019-06-15T09:23:48.605Z,51.96
2019-06-15T09:26:20.373Z,51.85
2019-06-15T09:28:52.278Z,52.06
2019-06-15T09:31:24.644Z,51.56
2019-06-15T09:33:56.473Z,51.60
2019-06-15T09:36:28.240Z,51.62
2019-06-15T09:38:59.910Z,51.57
2019-06-15T09:41:31.828Z,51.58
2019-06-15T09:44:03.549Z,51.51
2019-06-15T09:46:35.879Z,51.48
2019-06-15T09:49:07.684Z,51.38
2019-06-15T09:51:39.479Z,51.22
2019-06-15T09:54:11.288Z,51.03
2019-06-15T09:56:42.966Z,50.66
2019-06-15T09:59:25.552Z,50.69
2019-06-15T10:01:48.709Z,50.51
2019-06-15T10:04:22.380Z,50.28
2019-06-15T10:06:55.577Z,50.08
2019-06-15T10:09:28.985Z,49.87
2019-06-15T10:12:01.140Z,49.78
2019-06-15T10:14:33.650Z,49.41
2019-06-15T10:17:06.338Z,49.41
2019-06-15T10:19:38.195Z,49.24
2019-06-15T10:22:09.970Z,49.17
2019-06-15T10:24:41.684Z,49.30
2019-06-15T10:27:13.504Z,49.36
2019-06-15T10:29:46.075Z,49.43
2019-06-15T10:32:18.198Z,49.46
2019-06-15T10:34:51.145Z,49.35
2019-06-15T10:37:23.168Z,49.39
2019-06-15T10:39:55.211Z,49.38
2019-06-15T10:42:26.903Z,49.34
2019-06-15T10:44:58.647Z,49.21
2019-06-15T10:47:32.647Z,48.89
2019-06-15T10:50:04.842Z,48.70
2019-06-15T10:52:37.104Z,48.47
2019-06-15T10:55:09.954Z,48.39
2019-06-15T10:57:42.558Z,48.29
2019-06-15T11:00:17.367Z,47.86
2019-06-15T11:02:49.050Z,48.12
2019-06-15T11:05:22.613Z,48.27
2019-06-15T11:07:54.904Z,48.23
2019-06-15T11:10:42.339Z,48.27
2019-06-15T11:13:14.047Z,48.24
2019-06-15T11:15:46.142Z,48.27
2019-06-15T11:18:17.975Z,48.27
2019-06-15T11:20:50.206Z,48.21
2019-06-15T11:23:22.306Z,48.12
2019-06-15T11:25:54.939Z,48.10
2019-06-15T11:28:26.609Z,48.18
2019-06-15T11:30:58.578Z,48.01
2019-06-15T11:33:30.754Z,47.98
2019-06-15T11:36:02.653Z,47.81
2019-06-15T11:38:35.049Z,47.72
2019-06-15T11:41:07.262Z,47.75
2019-06-15T11:43:38.998Z,47.71
2019-06-15T11:46:10.805Z,47.67
2019-06-15T11:48:42.520Z,47.64
2019-06-15T11:51:14.389Z,47.60
2019-06-15T11:53:46.241Z,47.46
2019-06-15T11:56:18.175Z,47.16
2019-06-15T11:58:49.876Z,47.09
2019-06-15T12:01:21.683Z,47.11
2019-06-15T12:03:53.585Z,47.13
2019-06-15T12:06:25.358Z,47.09
2019-06-15T12:08:57.177Z,47.11
2019-06-15T12:11:29.110Z,47.05
2019-06-15T12:14:00.891Z,47.04
2019-06-15T12:16:32.610Z,47.06
2019-06-15T12:19:04.555Z,46.96
2019-06-15T12:21:36.269Z,46.82
2019-06-15T12:24:08.095Z,46.79
2019-06-15T12:26:40.010Z,46.55
2019-06-15T12:29:11.853Z,46.23
2019-06-15T12:31:44.047Z,46.05
2019-06-15T12:34:16.446Z,46.09
2019-06-15T12:36:48.252Z,45.91
2019-06-15T12:39:19.986Z,45.86
2019-06-15T12:41:51.942Z,45.89
2019-06-15T12:44:24.046Z,45.98
2019-06-15T12:46:55.836Z,45.94
2019-06-15T12:49:27.522Z,45.76
2019-06-15T12:51:59.389Z,45.51
2019-06-15T12:54:31.140Z,45.40
2019-06-15T12:57:03.388Z,45.33
2019-06-15T12:59:35.283Z,45.09
2019-06-15T13:02:07.398Z,44.95
2019-06-15T13:04:39.137Z,44.96
2019-06-15T13:07:10.937Z,44.97
2019-06-15T13:09:42.683Z,44.82
2019-06-15T13:12:14.488Z,45.19
2019-06-15T13:14:46.377Z,45.29
2019-06-15T13:17:18.129Z,45.16
2019-06-15T13:19:49.981Z,45.25
2019-06-15T13:22:21.737Z,45.09
2019-06-15T13:24:53.520Z,44.81
2019-06-15T13:27:25.295Z,44.69
2019-06-15T13:29:57.168Z,44.55
2019-06-15T13:32:28.917Z,44.53
2019-06-15T13:35:00.702Z,44.52
2019-06-15T13:37:41.663Z,44.33
2019-06-15T13:40:06.208Z,44.12
2019-06-15T13:42:37.926Z,44.10
2019-06-15T13:45:10.664Z,44.08
2019-06-15T13:47:42.432Z,44.10
2019-06-15T13:50:15.818Z,43.95
2019-06-15T13:52:47.614Z,43.72
2019-06-15T13:55:22.015Z,43.40
2019-06-15T13:57:53.938Z,43.14
2019-06-15T14:00:25.963Z,43.14
2019-06-15T14:02:57.771Z,43.03
2019-06-15T14:05:29.744Z,42.95
2019-06-15T14:08:01.456Z,42.85
2019-06-15T14:10:33.239Z,42.77
2019-06-15T14:13:05.002Z,42.91
2019-06-15T14:15:36.856Z,42.72
2019-06-15T14:18:08.677Z,42.66
2019-06-15T14:20:40.476Z,42.43
2019-06-15T14:23:12.280Z,42.24
2019-06-15T14:25:44.013Z,42.02
2019-06-15T14:28:16.056Z,42.00
2019-06-15T14:30:47.744Z,41.86
2019-06-15T14:33:19.599Z,41.77
2019-06-15T14:35:51.298Z,41.64
2019-06-15T14:38:23.011Z,41.51
2019-06-15T14:40:54.796Z,41.34
2019-06-15T14:43:26.564Z,41.41
2019-06-15T14:45:59.914Z,41.34
2019-06-15T14:48:31.853Z,41.21
2019-06-15T14:51:03.614Z,41.03
2019-06-15T14:53:36.684Z,41.04
2019-06-15T14:56:08.905Z,41.13
2019-06-15T14:58:40.639Z,41.00
2019-06-15T15:01:12.291Z,40.81
2019-06-15T15:03:47.089Z,40.91
2019-06-15T15:06:17.799Z,40.90
2019-06-15T15:08:49.634Z,40.90
2019-06-15T15:11:21.298Z,40.97
2019-06-15T15:13:53.061Z,40.84
2019-06-15T15:16:25.061Z,40.68
2019-06-15T15:18:58.084Z,40.74
2019-06-15T15:21:30.005Z,40.59
2019-06-15T15:24:01.693Z,40.49
2019-06-15T15:26:33.664Z,40.47
2019-06-15T15:29:07.020Z,40.49
2019-06-15T15:31:38.940Z,40.39
2019-06-15T15:34:11.195Z,40.32
2019-06-15T15:36:42.952Z,40.24
2019-06-15T15:39:16.721Z,40.26
2019-06-15T15:41:48.364Z,40.17
2019-06-15T15:44:20.079Z,40.27
2019-06-15T15:46:51.870Z,40.12
2019-06-15T15:49:23.772Z,39.93
2019-06-15T15:51:56.632Z,40.07
2019-06-15T15:54:28.481Z,40.11
2019-06-15T15:57:00.218Z,40.09
2019-06-15T15:59:32.025Z,40.11
2019-06-15T16:02:03.754Z,40.03
2019-06-15T16:04:37.095Z,39.92
2019-06-15T16:07:08.909Z,39.88
2019-06-15T16:09:41.122Z,39.86
2019-06-15T16:12:12.863Z,39.91
2019-06-15T16:14:44.619Z,40.05
2019-06-15T16:17:16.655Z,40.12
2019-06-15T16:19:48.922Z,39.90
2019-06-15T16:22:20.778Z,39.75
2019-06-15T16:24:52.504Z,39.54
2019-06-15T16:27:26.363Z,39.42
2019-06-15T16:29:57.763Z,39.40
2019-06-15T16:32:29.516Z,39.44
2019-06-15T16:35:01.336Z,39.43
2019-06-15T16:37:33.179Z,39.27
2019-06-15T16:40:05.364Z,39.24
2019-06-15T16:42:37.059Z,39.04
2019-06-15T16:45:08.963Z,39.18
2019-06-15T16:47:40.699Z,39.28
2019-06-15T16:50:12.744Z,39.27
2019-06-15T16:52:46.805Z,39.30
2019-06-15T16:55:18.033Z,39.38
2019-06-15T16:57:49.758Z,39.34
2019-06-15T17:00:21.953Z,39.28
2019-06-15T17:02:54.378Z,39.07
2019-06-15T17:05:27.447Z,38.99
2019-06-15T17:07:59.422Z,39.05
2019-06-15T17:10:38.712Z,39.09
2019-06-15T17:13:10.926Z,38.89
2019-06-15T17:15:42.872Z,38.85
2019-06-15T17:18:14.747Z,38.78
2019-06-15T17:20:51.587Z,38.80
2019-06-15T17:23:23.271Z,38.88
2019-06-15T17:25:55.316Z,38.98
2019-06-15T17:28:27.378Z,38.90
2019-06-15T17:30:59.697Z,39.02
2019-06-15T17:33:37.544Z,39.01
2019-06-15T17:36:06.832Z,38.97
2019-06-15T17:38:38.761Z,39.04
2019-06-15T17:41:11.000Z,39.01
2019-06-15T17:43:42.929Z,38.99
2019-06-15T17:46:16.499Z,38.92
2019-06-15T17:48:48.280Z,38.93
2019-06-15T17:51:20.490Z,39.08
2019-06-15T17:53:52.254Z,39.22
2019-06-15T17:56:26.658Z,39.32
2019-06-15T17:58:57.578Z,39.39
2019-06-15T18:01:29.281Z,39.48
2019-06-15T18:04:01.305Z,39.48
2019-06-15T18:06:33.042Z,39.49
2019-06-15T18:09:06.604Z,39.55
2019-06-15T18:11:38.536Z,39.59
2019-06-15T18:14:10.442Z,39.70
2019-06-15T18:16:42.267Z,39.83
2019-06-15T18:19:16.785Z,39.93
2019-06-15T18:21:47.619Z,40.00
2019-06-15T18:24:19.591Z,40.05
2019-06-15T18:26:51.570Z,40.11
2019-06-15T18:29:23.393Z,40.18
2019-06-15T18:31:56.686Z,40.24
2019-06-15T18:34:28.445Z,40.29
2019-06-15T18:37:00.312Z,40.37
2019-06-15T18:39:32.600Z,40.43
2019-06-15T18:42:04.387Z,40.47
2019-06-15T18:44:36.643Z,40.56
2019-06-15T18:47:08.514Z,40.66
2019-06-15T18:49:40.203Z,40.72
2019-06-15T18:52:12.116Z,40.79
2019-06-15T18:54:46.632Z,40.92
2019-06-15T18:57:18.106Z,41.10
2019-06-15T18:59:49.853Z,41.22
2019-06-15T19:02:21.618Z,41.23
2019-06-15T19:04:53.360Z,41.29
2019-06-15T19:07:26.997Z,41.37
2019-06-15T19:09:59.190Z,41.45
2019-06-15T19:12:31.336Z,41.55
2019-06-15T19:15:03.577Z,41.61
2019-06-15T19:17:37.064Z,41.68
2019-06-15T19:20:10.564Z,41.77
2019-06-15T19:22:42.522Z,41.86
2019-06-15T19:25:16.186Z,41.94
2019-06-15T19:27:48.063Z,42.02
2019-06-15T19:30:20.503Z,42.10
2019-06-15T19:32:52.394Z,42.23
2019-06-15T19:35:26.328Z,42.31
2019-06-15T19:37:58.185Z,42.36
2019-06-15T19:40:30.071Z,42.46
2019-06-15T19:43:02.075Z,42.59
2019-06-15T19:45:33.936Z,42.74
2019-06-15T19:48:06.877Z,42.91
2019-06-15T19:50:38.929Z,43.00
2019-06-15T19:53:10.629Z,43.13
2019-06-15T19:55:42.741Z,43.21
2019-06-15T19:58:16.767Z,43.25
2019-06-15T20:00:50.336Z,43.26
2019-06-15T20:03:23.675Z,43.30
2019-06-15T20:05:56.954Z,43.34
2019-06-15T20:08:30.389Z,43.44
2019-06-15T20:11:04.021Z,43.54
2019-06-15T20:13:37.048Z,43.65
2019-06-15T20:16:09.048Z,43.79
2019-06-15T20:18:40.868Z,43.90
2019-06-15T20:21:12.852Z,44.06
2019-06-15T20:23:46.859Z,44.25
2019-06-15T20:26:18.216Z,44.43
2019-06-15T20:28:50.093Z,44.51
2019-06-15T20:31:21.955Z,44.56
2019-06-15T20:33:53.849Z,44.60
2019-06-15T20:36:26.898Z,44.67
2019-06-15T20:39:01.011Z,44.67
2019-06-15T20:41:32.775Z,44.63
2019-06-15T20:44:04.764Z,44.66
2019-06-15T20:46:37.253Z,44.63
2019-06-15T20:49:09.420Z,44.65
2019-06-15T20:51:41.217Z,44.64
2019-06-15T20:54:12.987Z,44.67
2019-06-15T20:56:46.171Z,44.86
2019-06-15T20:59:17.927Z,45.11
2019-06-15T21:01:49.668Z,45.28
2019-06-15T21:04:21.452Z,45.41
2019-06-15T21:06:53.470Z,45.57
2019-06-15T21:09:27.528Z,45.72
2019-06-15T21:11:58.977Z,45.77
2019-06-15T21:14:30.764Z,45.77
2019-06-15T21:17:02.683Z,45.81
2019-06-15T21:19:36.065Z,45.86
2019-06-15T21:22:08.170Z,45.87
2019-06-15T21:24:39.896Z,45.93
2019-06-15T21:27:11.945Z,45.93
2019-06-15T21:29:43.771Z,45.95
2019-06-15T21:32:16.115Z,46.21
2019-06-15T21:34:47.925Z,46.45
2019-06-15T21:37:19.693Z,46.58
2019-06-15T21:39:51.542Z,46.74
2019-06-15T21:42:23.428Z,46.85
2019-06-15T21:44:56.222Z,47.10
2019-06-15T21:47:28.135Z,47.13
2019-06-15T21:49:59.868Z,47.08
2019-06-15T21:52:31.961Z,46.98
2019-06-15T21:55:03.661Z,46.93
2019-06-15T21:57:36.529Z,46.85
2019-06-15T22:00:13.527Z,46.82
2019-06-15T22:02:47.189Z,46.80
2019-06-15T22:05:21.887Z,46.80
2019-06-15T22:07:56.638Z,46.85
2019-06-15T22:10:27.990Z,46.91
2019-06-15T22:12:59.869Z,46.95
2019-06-15T22:15:31.948Z,47.00
2019-06-15T22:18:03.780Z,47.10
2019-06-15T22:20:35.988Z,47.13
2019-06-15T22:23:07.918Z,47.20
2019-06-15T22:25:39.728Z,47.22
2019-06-15T22:28:11.963Z,47.35
2019-06-15T22:30:46.235Z,47.47
2019-06-15T22:33:17.831Z,47.63
2019-06-15T22:35:49.576Z,47.84
2019-06-15T22:38:21.343Z,48.10
2019-06-15T22:40:53.302Z,48.38
2019-06-15T22:43:27.129Z,48.56
2019-06-15T22:45:58.591Z,48.71
2019-06-15T22:48:30.464Z,48.87
2019-06-15T22:51:02.309Z,49.11
2019-06-15T22:53:36.493Z,49.25
2019-06-15T22:56:08.057Z,49.54
2019-06-15T22:58:39.772Z,49.85
2019-06-15T23:01:11.759Z,50.20
2019-06-15T23:03:46.321Z,50.65
2019-06-15T23:06:16.968Z,51.00
2019-06-15T23:08:48.827Z,51.41
2019-06-15T23:11:20.578Z,51.77
2019-06-15T23:13:52.234Z,52.08
2019-06-15T23:16:26.758Z,52.45
2019-06-15T23:18:57.827Z,52.68
2019-06-15T23:21:29.928Z,53.00
2019-06-15T23:24:01.768Z,53.34
2019-06-15T23:26:33.514Z,53.55
2019-06-15T23:29:06.948Z,53.93
2019-06-15T23:31:38.956Z,54.25
2019-06-15T23:34:10.771Z,54.44
2019-06-15T23:36:54.273Z,54.64
2019-06-15T23:39:17.954Z,54.71
2019-06-15T23:41:49.948Z,54.84
2019-06-15T23:44:27.016Z,55.01
2019-06-15T23:47:01.973Z,55.14
2019-06-15T23:49:36.526Z,55.21
2019-06-15T23:52:07.632Z,55.37
2019-06-15T23:54:39.518Z,55.46
2019-06-15T23:57:14.028Z,55.54
2019-06-15T23:59:46.542Z,55.70
